sensor_id;sensor_type;location;lat;lon;timestamp;P1;durP1;ratioP1;P2;durP2;ratioP2
44774;SDS011;31340;51.402;0.016;2023-02-19T00:02:25;20.85;;;4.43;;
44774;SDS011;31340;51.402;0.016;2023-02-19T00:04:53;21.92;;;4.57;;
44774;SDS011;31340;51.402;0.016;2023-02-19T00:07:20;25.42;;;5.57;;
44774;SDS011;31340;51.402;0.016;2023-02-19T00:09:48;22.83;;;4.68;;
44774;SDS011;31340;51.402;0.016;2023-02-19T00:12:15;23.02;;;3.95;;
44774;SDS011;31340;51.402;0.016;2023-02-19T00:14:43;23.20;;;3.67;;
44774;SDS011;31340;51.402;0.016;2023-02-19T00:17:10;25.38;;;4.45;;
44774;SDS011;31340;51.402;0.016;2023-02-19T00:19:37;23.35;;;4.38;;
44774;SDS011;31340;51.402;0.016;2023-02-19T00:22:05;18.23;;;3.90;;
44774;SDS011;31340;51.402;0.016;2023-02-19T00:24:33;23.42;;;3.90;;
44774;SDS011;31340;51.402;0.016;2023-02-19T00:27:00;29.40;;;4.85;;
44774;SDS011;31340;51.402;0.016;2023-02-19T00:29:27;18.05;;;3.63;;
44774;SDS011;31340;51.402;0.016;2023-02-19T00:31:55;23.92;;;4.32;;
44774;SDS011;31340;51.402;0.016;2023-02-19T00:34:23;18.98;;;3.45;;
44774;SDS011;31340;51.402;0.016;2023-02-19T00:36:51;22.10;;;4.25;;
44774;SDS011;31340;51.402;0.016;2023-02-19T00:39:18;20.08;;;3.85;;
44774;SDS011;31340;51.402;0.016;2023-02-19T00:41:47;24.80;;;4.82;;
44774;SDS011;31340;51.402;0.016;2023-02-19T00:44:15;22.50;;;4.13;;
44774;SDS011;31340;51.402;0.016;2023-02-19T00:46:44;25.48;;;4.43;;
44774;SDS011;31340;51.402;0.016;2023-02-19T00:49:31;27.55;;;4.82;;
44774;SDS011;31340;51.402;0.016;2023-02-19T00:51:59;22.13;;;4.00;;
44774;SDS011;31340;51.402;0.016;2023-02-19T00:54:26;20.95;;;4.35;;
44774;SDS011;31340;51.402;0.016;2023-02-19T00:56:54;18.83;;;3.90;;
44774;SDS011;31340;51.402;0.016;2023-02-19T00:59:21;21.23;;;3.80;;
44774;SDS011;31340;51.402;0.016;2023-02-19T01:01:49;22.17;;;4.47;;
44774;SDS011;31340;51.402;0.016;2023-02-19T01:04:17;22.45;;;4.35;;
44774;SDS011;31340;51.402;0.016;2023-02-19T01:06:44;17.83;;;3.90;;
44774;SDS011;31340;51.402;0.016;2023-02-19T01:09:14;21.45;;;3.78;;
44774;SDS011;31340;51.402;0.016;2023-02-19T01:11:42;21.30;;;3.50;;
44774;SDS011;31340;51.402;0.016;2023-02-19T01:14:09;22.55;;;4.05;;
44774;SDS011;31340;51.402;0.016;2023-02-19T01:16:37;22.05;;;3.53;;
44774;SDS011;31340;51.402;0.016;2023-02-19T01:19:05;23.83;;;4.75;;
44774;SDS011;31340;51.402;0.016;2023-02-19T01:21:33;26.85;;;4.82;;
44774;SDS011;31340;51.402;0.016;2023-02-19T01:24:02;27.05;;;5.38;;
44774;SDS011;31340;51.402;0.016;2023-02-19T01:26:30;20.77;;;4.35;;
44774;SDS011;31340;51.402;0.016;2023-02-19T01:28:59;25.88;;;4.43;;
44774;SDS011;31340;51.402;0.016;2023-02-19T01:31:27;26.52;;;4.15;;
44774;SDS011;31340;51.402;0.016;2023-02-19T01:33:56;23.77;;;4.20;;
44774;SDS011;31340;51.402;0.016;2023-02-19T01:36:26;21.67;;;4.60;;
44774;SDS011;31340;51.402;0.016;2023-02-19T01:38:55;29.08;;;4.80;;
44774;SDS011;31340;51.402;0.016;2023-02-19T01:41:26;24.27;;;4.43;;
44774;SDS011;31340;51.402;0.016;2023-02-19T01:46:25;25.40;;;4.78;;
44774;SDS011;31340;51.402;0.016;2023-02-19T01:49:05;25.00;;;4.78;;
44774;SDS011;31340;51.402;0.016;2023-02-19T01:51:40;24.05;;;4.35;;
44774;SDS011;31340;51.402;0.016;2023-02-19T01:54:10;21.42;;;4.18;;
44774;SDS011;31340;51.402;0.016;2023-02-19T01:56:41;28.77;;;5.00;;
44774;SDS011;31340;51.402;0.016;2023-02-19T01:59:11;21.83;;;4.30;;
44774;SDS011;31340;51.402;0.016;2023-02-19T02:01:40;23.35;;;5.10;;
44774;SDS011;31340;51.402;0.016;2023-02-19T02:04:08;17.85;;;3.90;;
44774;SDS011;31340;51.402;0.016;2023-02-19T02:06:48;24.45;;;4.70;;
44774;SDS011;31340;51.402;0.016;2023-02-19T02:09:18;19.75;;;4.10;;
44774;SDS011;31340;51.402;0.016;2023-02-19T02:12:06;23.13;;;4.95;;
44774;SDS011;31340;51.402;0.016;2023-02-19T02:14:35;24.85;;;4.60;;
44774;SDS011;31340;51.402;0.016;2023-02-19T02:31:08;26.92;;;4.80;;
44774;SDS011;31340;51.402;0.016;2023-02-19T02:33:46;22.95;;;4.47;;
44774;SDS011;31340;51.402;0.016;2023-02-19T02:36:17;21.67;;;3.90;;
44774;SDS011;31340;51.402;0.016;2023-02-19T02:38:50;26.55;;;5.60;;
44774;SDS011;31340;51.402;0.016;2023-02-19T02:41:22;19.42;;;3.97;;
44774;SDS011;31340;51.402;0.016;2023-02-19T02:43:50;28.15;;;4.35;;
44774;SDS011;31340;51.402;0.016;2023-02-19T02:46:22;24.48;;;4.18;;
44774;SDS011;31340;51.402;0.016;2023-02-19T02:49:02;21.33;;;4.53;;
44774;SDS011;31340;51.402;0.016;2023-02-19T02:51:36;25.02;;;4.65;;
44774;SDS011;31340;51.402;0.016;2023-02-19T02:54:15;26.13;;;5.00;;
44774;SDS011;31340;51.402;0.016;2023-02-19T02:57:09;26.52;;;4.50;;
44774;SDS011;31340;51.402;0.016;2023-02-19T02:59:55;23.00;;;4.35;;
44774;SDS011;31340;51.402;0.016;2023-02-19T03:02:24;24.05;;;5.10;;
44774;SDS011;31340;51.402;0.016;2023-02-19T03:07:58;20.40;;;3.95;;
44774;SDS011;31340;51.402;0.016;2023-02-19T03:13:09;16.80;;;3.53;;
44774;SDS011;31340;51.402;0.016;2023-02-19T03:16:01;28.15;;;4.70;;
44774;SDS011;31340;51.402;0.016;2023-02-19T03:18:54;23.30;;;5.38;;
44774;SDS011;31340;51.402;0.016;2023-02-19T03:21:46;20.38;;;4.35;;
44774;SDS011;31340;51.402;0.016;2023-02-19T03:24:16;26.45;;;4.70;;
44774;SDS011;31340;51.402;0.016;2023-02-19T03:27:05;21.02;;;4.43;;
44774;SDS011;31340;51.402;0.016;2023-02-19T03:29:41;21.15;;;4.50;;
44774;SDS011;31340;51.402;0.016;2023-02-19T03:32:14;20.48;;;4.18;;
44774;SDS011;31340;51.402;0.016;2023-02-19T03:34:54;17.40;;;4.43;;
44774;SDS011;31340;51.402;0.016;2023-02-19T03:37:27;19.40;;;3.60;;
44774;SDS011;31340;51.402;0.016;2023-02-19T03:39:58;21.48;;;4.63;;
44774;SDS011;31340;51.402;0.016;2023-02-19T03:53:31;14.80;;;3.85;;
44774;SDS011;31340;51.402;0.016;2023-02-19T03:56:18;17.40;;;4.07;;
44774;SDS011;31340;51.402;0.016;2023-02-19T04:06:53;15.38;;;3.45;;
44774;SDS011;31340;51.402;0.016;2023-02-19T04:09:26;23.60;;;4.68;;
44774;SDS011;31340;51.402;0.016;2023-02-19T04:12:05;16.50;;;3.40;;
44774;SDS011;31340;51.402;0.016;2023-02-19T04:17:06;18.45;;;4.55;;
44774;SDS011;31340;51.402;0.016;2023-02-19T04:19:40;21.33;;;4.20;;
44774;SDS011;31340;51.402;0.016;2023-02-19T04:22:09;17.38;;;3.38;;
44774;SDS011;31340;51.402;0.016;2023-02-19T04:24:39;17.15;;;3.88;;
44774;SDS011;31340;51.402;0.016;2023-02-19T04:27:12;15.27;;;3.35;;
44774;SDS011;31340;51.402;0.016;2023-02-19T04:29:40;15.80;;;3.30;;
44774;SDS011;31340;51.402;0.016;2023-02-19T04:32:09;16.35;;;3.33;;
44774;SDS011;31340;51.402;0.016;2023-02-19T04:34:38;23.00;;;4.07;;
44774;SDS011;31340;51.402;0.016;2023-02-19T04:37:06;14.85;;;2.97;;
44774;SDS011;31340;51.402;0.016;2023-02-19T04:39:34;11.15;;;2.85;;
44774;SDS011;31340;51.402;0.016;2023-02-19T04:42:01;14.23;;;3.17;;
44774;SDS011;31340;51.402;0.016;2023-02-19T04:44:30;14.63;;;3.13;;
44774;SDS011;31340;51.402;0.016;2023-02-19T04:46:59;17.08;;;2.97;;
44774;SDS011;31340;51.402;0.016;2023-02-19T04:49:27;12.52;;;2.80;;
44774;SDS011;31340;51.402;0.016;2023-02-19T04:51:55;12.13;;;2.63;;
44774;SDS011;31340;51.402;0.016;2023-02-19T04:54:22;14.38;;;3.22;;
44774;SDS011;31340;51.402;0.016;2023-02-19T04:56:50;26.45;;;3.33;;
44774;SDS011;31340;51.402;0.016;2023-02-19T04:59:18;15.40;;;3.60;;
44774;SDS011;31340;51.402;0.016;2023-02-19T05:01:46;19.40;;;2.90;;
44774;SDS011;31340;51.402;0.016;2023-02-19T05:04:14;13.98;;;3.08;;
44774;SDS011;31340;51.402;0.016;2023-02-19T05:06:41;14.13;;;2.70;;
44774;SDS011;31340;51.402;0.016;2023-02-19T05:09:09;14.75;;;2.72;;
44774;SDS011;31340;51.402;0.016;2023-02-19T05:11:37;13.38;;;3.15;;
44774;SDS011;31340;51.402;0.016;2023-02-19T05:14:05;12.02;;;3.05;;
44774;SDS011;31340;51.402;0.016;2023-02-19T05:16:32;13.98;;;2.60;;
44774;SDS011;31340;51.402;0.016;2023-02-19T05:19:00;17.90;;;2.70;;
44774;SDS011;31340;51.402;0.016;2023-02-19T05:21:28;12.98;;;3.60;;
44774;SDS011;31340;51.402;0.016;2023-02-19T05:23:55;10.73;;;2.35;;
44774;SDS011;31340;51.402;0.016;2023-02-19T05:26:23;22.23;;;3.78;;
44774;SDS011;31340;51.402;0.016;2023-02-19T05:28:51;14.40;;;2.55;;
44774;SDS011;31340;51.402;0.016;2023-02-19T05:31:20;10.77;;;2.47;;
44774;SDS011;31340;51.402;0.016;2023-02-19T05:33:48;17.92;;;3.10;;
44774;SDS011;31340;51.402;0.016;2023-02-19T05:36:18;18.00;;;3.75;;
44774;SDS011;31340;51.402;0.016;2023-02-19T05:38:47;14.70;;;2.65;;
44774;SDS011;31340;51.402;0.016;2023-02-19T05:41:19;9.10;;;2.97;;
44774;SDS011;31340;51.402;0.016;2023-02-19T05:43:52;11.90;;;2.33;;
44774;SDS011;31340;51.402;0.016;2023-02-19T05:46:21;14.27;;;3.05;;
44774;SDS011;31340;51.402;0.016;2023-02-19T05:48:53;10.30;;;2.45;;
44774;SDS011;31340;51.402;0.016;2023-02-19T05:51:22;13.50;;;2.75;;
44774;SDS011;31340;51.402;0.016;2023-02-19T05:53:51;9.73;;;2.53;;
44774;SDS011;31340;51.402;0.016;2023-02-19T05:56:30;11.35;;;2.00;;
44774;SDS011;31340;51.402;0.016;2023-02-19T05:59:06;13.55;;;2.50;;
44774;SDS011;31340;51.402;0.016;2023-02-19T06:01:40;16.73;;;2.30;;
44774;SDS011;31340;51.402;0.016;2023-02-19T06:04:07;15.05;;;2.70;;
44774;SDS011;31340;51.402;0.016;2023-02-19T06:06:37;11.73;;;2.10;;
44774;SDS011;31340;51.402;0.016;2023-02-19T06:09:05;11.45;;;2.08;;
44774;SDS011;31340;51.402;0.016;2023-02-19T06:11:33;13.10;;;2.45;;
44774;SDS011;31340;51.402;0.016;2023-02-19T06:14:01;13.35;;;2.40;;
44774;SDS011;31340;51.402;0.016;2023-02-19T06:16:29;11.73;;;2.50;;
44774;SDS011;31340;51.402;0.016;2023-02-19T06:19:02;8.88;;;2.90;;
44774;SDS011;31340;51.402;0.016;2023-02-19T06:21:30;12.27;;;2.63;;
44774;SDS011;31340;51.402;0.016;2023-02-19T06:23:57;17.48;;;2.60;;
44774;SDS011;31340;51.402;0.016;2023-02-19T06:26:25;12.30;;;2.47;;
44774;SDS011;31340;51.402;0.016;2023-02-19T06:28:52;9.52;;;2.55;;
44774;SDS011;31340;51.402;0.016;2023-02-19T06:31:21;11.25;;;2.63;;
44774;SDS011;31340;51.402;0.016;2023-02-19T06:33:49;15.25;;;2.53;;
44774;SDS011;31340;51.402;0.016;2023-02-19T06:36:17;8.45;;;2.08;;
44774;SDS011;31340;51.402;0.016;2023-02-19T06:38:46;9.88;;;2.20;;
44774;SDS011;31340;51.402;0.016;2023-02-19T06:41:14;11.27;;;2.50;;
44774;SDS011;31340;51.402;0.016;2023-02-19T06:43:42;12.07;;;2.42;;
44774;SDS011;31340;51.402;0.016;2023-02-19T06:46:11;8.75;;;2.60;;
44774;SDS011;31340;51.402;0.016;2023-02-19T06:48:39;10.65;;;2.88;;
44774;SDS011;31340;51.402;0.016;2023-02-19T06:51:09;12.25;;;2.65;;
44774;SDS011;31340;51.402;0.016;2023-02-19T06:53:40;17.75;;;2.35;;
44774;SDS011;31340;51.402;0.016;2023-02-19T06:58:52;16.75;;;3.50;;
44774;SDS011;31340;51.402;0.016;2023-02-19T07:01:22;13.98;;;2.25;;
44774;SDS011;31340;51.402;0.016;2023-02-19T07:03:50;11.75;;;2.92;;
44774;SDS011;31340;51.402;0.016;2023-02-19T07:06:19;16.98;;;2.78;;
44774;SDS011;31340;51.402;0.016;2023-02-19T07:08:48;13.82;;;2.60;;
44774;SDS011;31340;51.402;0.016;2023-02-19T07:11:16;13.65;;;2.13;;
44774;SDS011;31340;51.402;0.016;2023-02-19T07:13:44;9.73;;;2.45;;
44774;SDS011;31340;51.402;0.016;2023-02-19T07:16:12;13.27;;;2.80;;
44774;SDS011;31340;51.402;0.016;2023-02-19T07:18:40;13.13;;;2.40;;
44774;SDS011;31340;51.402;0.016;2023-02-19T07:21:09;12.07;;;2.47;;
44774;SDS011;31340;51.402;0.016;2023-02-19T07:23:38;10.77;;;2.30;;
44774;SDS011;31340;51.402;0.016;2023-02-19T07:26:24;18.50;;;3.08;;
44774;SDS011;31340;51.402;0.016;2023-02-19T07:28:52;13.73;;;2.17;;
44774;SDS011;31340;51.402;0.016;2023-02-19T07:31:21;11.05;;;2.95;;
44774;SDS011;31340;51.402;0.016;2023-02-19T07:33:49;13.10;;;2.47;;
44774;SDS011;31340;51.402;0.016;2023-02-19T07:36:17;9.13;;;2.15;;
44774;SDS011;31340;51.402;0.016;2023-02-19T07:38:46;8.82;;;1.77;;
44774;SDS011;31340;51.402;0.016;2023-02-19T07:41:13;13.77;;;2.85;;
44774;SDS011;31340;51.402;0.016;2023-02-19T07:43:41;15.15;;;2.05;;
44774;SDS011;31340;51.402;0.016;2023-02-19T07:46:10;17.00;;;2.33;;
44774;SDS011;31340;51.402;0.016;2023-02-19T07:48:39;16.45;;;3.10;;
44774;SDS011;31340;51.402;0.016;2023-02-19T07:51:15;11.68;;;2.67;;
44774;SDS011;31340;51.402;0.016;2023-02-19T07:53:45;16.60;;;2.75;;
44774;SDS011;31340;51.402;0.016;2023-02-19T07:56:13;17.75;;;2.50;;
44774;SDS011;31340;51.402;0.016;2023-02-19T07:58:41;19.15;;;2.60;;
44774;SDS011;31340;51.402;0.016;2023-02-19T08:01:10;14.95;;;3.15;;
44774;SDS011;31340;51.402;0.016;2023-02-19T08:03:45;17.70;;;2.50;;
44774;SDS011;31340;51.402;0.016;2023-02-19T08:06:15;9.90;;;2.30;;
44774;SDS011;31340;51.402;0.016;2023-02-19T08:08:43;11.88;;;2.70;;
44774;SDS011;31340;51.402;0.016;2023-02-19T08:11:10;11.07;;;1.80;;
44774;SDS011;31340;51.402;0.016;2023-02-19T08:13:57;10.95;;;2.42;;
44774;SDS011;31340;51.402;0.016;2023-02-19T08:16:25;11.25;;;2.20;;
44774;SDS011;31340;51.402;0.016;2023-02-19T08:19:09;12.52;;;2.55;;
44774;SDS011;31340;51.402;0.016;2023-02-19T08:21:36;9.57;;;2.10;;
44774;SDS011;31340;51.402;0.016;2023-02-19T08:24:04;14.70;;;2.83;;
44774;SDS011;31340;51.402;0.016;2023-02-19T08:26:32;7.65;;;2.15;;
44774;SDS011;31340;51.402;0.016;2023-02-19T08:29:00;8.18;;;2.00;;
44774;SDS011;31340;51.402;0.016;2023-02-19T08:31:28;12.27;;;2.67;;
44774;SDS011;31340;51.402;0.016;2023-02-19T08:33:56;7.40;;;2.08;;
44774;SDS011;31340;51.402;0.016;2023-02-19T08:36:23;11.45;;;2.47;;
44774;SDS011;31340;51.402;0.016;2023-02-19T08:38:51;12.43;;;2.53;;
44774;SDS011;31340;51.402;0.016;2023-02-19T08:41:19;14.43;;;2.72;;
44774;SDS011;31340;51.402;0.016;2023-02-19T08:43:47;12.23;;;2.47;;
44774;SDS011;31340;51.402;0.016;2023-02-19T08:46:14;10.45;;;2.35;;
44774;SDS011;31340;51.402;0.016;2023-02-19T08:48:42;8.35;;;2.35;;
44774;SDS011;31340;51.402;0.016;2023-02-19T08:51:10;14.98;;;2.95;;
44774;SDS011;31340;51.402;0.016;2023-02-19T08:53:39;14.57;;;3.35;;
44774;SDS011;31340;51.402;0.016;2023-02-19T08:56:07;7.78;;;2.55;;
44774;SDS011;31340;51.402;0.016;2023-02-19T08:58:37;12.38;;;2.40;;
44774;SDS011;31340;51.402;0.016;2023-02-19T09:01:09;10.35;;;2.40;;
44774;SDS011;31340;51.402;0.016;2023-02-19T09:03:39;11.25;;;2.70;;
44774;SDS011;31340;51.402;0.016;2023-02-19T09:06:10;8.07;;;2.00;;
44774;SDS011;31340;51.402;0.016;2023-02-19T09:08:42;7.75;;;2.17;;
44774;SDS011;31340;51.402;0.016;2023-02-19T09:11:10;10.32;;;1.92;;
44774;SDS011;31340;51.402;0.016;2023-02-19T09:13:39;12.10;;;2.33;;
44774;SDS011;31340;51.402;0.016;2023-02-19T09:16:06;9.40;;;2.00;;
44774;SDS011;31340;51.402;0.016;2023-02-19T09:18:35;13.10;;;2.50;;
44774;SDS011;31340;51.402;0.016;2023-02-19T09:21:03;14.75;;;2.75;;
44774;SDS011;31340;51.402;0.016;2023-02-19T09:23:32;9.10;;;2.17;;
44774;SDS011;31340;51.402;0.016;2023-02-19T09:26:00;24.75;;;3.22;;
44774;SDS011;31340;51.402;0.016;2023-02-19T09:28:32;11.05;;;2.22;;
44774;SDS011;31340;51.402;0.016;2023-02-19T09:31:04;8.32;;;2.30;;
44774;SDS011;31340;51.402;0.016;2023-02-19T09:33:32;10.52;;;3.50;;
44774;SDS011;31340;51.402;0.016;2023-02-19T09:36:01;10.45;;;2.83;;
44774;SDS011;31340;51.402;0.016;2023-02-19T09:38:31;11.18;;;3.08;;
44774;SDS011;31340;51.402;0.016;2023-02-19T09:41:05;11.15;;;3.03;;
44774;SDS011;31340;51.402;0.016;2023-02-19T09:43:35;8.65;;;2.17;;
44774;SDS011;31340;51.402;0.016;2023-02-19T09:46:08;14.40;;;2.35;;
44774;SDS011;31340;51.402;0.016;2023-02-19T09:48:55;15.75;;;2.45;;
44774;SDS011;31340;51.402;0.016;2023-02-19T09:51:30;6.15;;;1.90;;
44774;SDS011;31340;51.402;0.016;2023-02-19T09:54:00;5.13;;;1.60;;
44774;SDS011;31340;51.402;0.016;2023-02-19T09:56:29;5.20;;;2.58;;
44774;SDS011;31340;51.402;0.016;2023-02-19T09:58:57;6.63;;;1.73;;
44774;SDS011;31340;51.402;0.016;2023-02-19T10:01:27;6.72;;;1.88;;
44774;SDS011;31340;51.402;0.016;2023-02-19T10:03:59;7.57;;;1.90;;
44774;SDS011;31340;51.402;0.016;2023-02-19T10:06:27;5.30;;;1.65;;
44774;SDS011;31340;51.402;0.016;2023-02-19T10:09:07;6.20;;;2.20;;
44774;SDS011;31340;51.402;0.016;2023-02-19T10:11:53;4.90;;;1.63;;
44774;SDS011;31340;51.402;0.016;2023-02-19T10:14:41;5.50;;;1.83;;
44774;SDS011;31340;51.402;0.016;2023-02-19T10:17:23;6.55;;;1.85;;
44774;SDS011;31340;51.402;0.016;2023-02-19T10:19:52;5.78;;;1.40;;
44774;SDS011;31340;51.402;0.016;2023-02-19T10:22:20;8.93;;;2.47;;
44774;SDS011;31340;51.402;0.016;2023-02-19T10:24:49;4.75;;;1.50;;
44774;SDS011;31340;51.402;0.016;2023-02-19T10:27:20;2.72;;;1.00;;
44774;SDS011;31340;51.402;0.016;2023-02-19T10:29:48;6.45;;;1.60;;
44774;SDS011;31340;51.402;0.016;2023-02-19T10:32:20;6.15;;;1.55;;
44774;SDS011;31340;51.402;0.016;2023-02-19T10:35:12;7.40;;;1.80;;
44774;SDS011;31340;51.402;0.016;2023-02-19T10:37:43;7.00;;;1.50;;
44774;SDS011;31340;51.402;0.016;2023-02-19T10:40:19;3.30;;;1.50;;
44774;SDS011;31340;51.402;0.016;2023-02-19T10:42:55;4.82;;;1.73;;
44774;SDS011;31340;51.402;0.016;2023-02-19T10:48:03;3.53;;;1.45;;
44774;SDS011;31340;51.402;0.016;2023-02-19T10:50:35;8.50;;;1.85;;
44774;SDS011;31340;51.402;0.016;2023-02-19T10:53:20;5.63;;;2.00;;
44774;SDS011;31340;51.402;0.016;2023-02-19T10:56:09;6.75;;;1.73;;
44774;SDS011;31340;51.402;0.016;2023-02-19T10:59:31;8.98;;;2.05;;
44774;SDS011;31340;51.402;0.016;2023-02-19T11:01:55;10.23;;;2.00;;
44774;SDS011;31340;51.402;0.016;2023-02-19T11:04:29;7.32;;;2.00;;
44774;SDS011;31340;51.402;0.016;2023-02-19T11:07:12;6.07;;;1.50;;
44774;SDS011;31340;51.402;0.016;2023-02-19T11:09:43;4.28;;;1.60;;
44774;SDS011;31340;51.402;0.016;2023-02-19T11:12:13;7.45;;;2.20;;
44774;SDS011;31340;51.402;0.016;2023-02-19T11:14:49;4.47;;;1.20;;
44774;SDS011;31340;51.402;0.016;2023-02-19T11:17:26;3.55;;;1.20;;
44774;SDS011;31340;51.402;0.016;2023-02-19T11:19:59;4.30;;;1.50;;
44774;SDS011;31340;51.402;0.016;2023-02-19T11:28:01;5.47;;;1.65;;
44774;SDS011;31340;51.402;0.016;2023-02-19T11:30:36;7.93;;;1.70;;
44774;SDS011;31340;51.402;0.016;2023-02-19T11:33:12;5.82;;;1.60;;
44774;SDS011;31340;51.402;0.016;2023-02-19T11:35:57;6.53;;;1.70;;
44774;SDS011;31340;51.402;0.016;2023-02-19T11:38:43;9.00;;;1.63;;
44774;SDS011;31340;51.402;0.016;2023-02-19T11:49:13;7.90;;;2.03;;
44774;SDS011;31340;51.402;0.016;2023-02-19T11:54:49;4.22;;;1.40;;
44774;SDS011;31340;51.402;0.016;2023-02-19T11:57:43;5.80;;;1.52;;
44774;SDS011;31340;51.402;0.016;2023-02-19T12:00:27;7.30;;;1.73;;
44774;SDS011;31340;51.402;0.016;2023-02-19T12:08:58;5.35;;;1.25;;
44774;SDS011;31340;51.402;0.016;2023-02-19T12:17:15;4.45;;;1.10;;
44774;SDS011;31340;51.402;0.016;2023-02-19T12:28:48;4.25;;;1.70;;
44774;SDS011;31340;51.402;0.016;2023-02-19T12:34:30;4.93;;;1.33;;
44774;SDS011;31340;51.402;0.016;2023-02-19T12:45:21;4.70;;;1.45;;
44774;SDS011;31340;51.402;0.016;2023-02-19T12:48:00;2.38;;;1.38;;
44774;SDS011;31340;51.402;0.016;2023-02-19T12:50:34;2.53;;;1.00;;
44774;SDS011;31340;51.402;0.016;2023-02-19T12:53:23;4.20;;;1.00;;
44774;SDS011;31340;51.402;0.016;2023-02-19T12:55:58;5.05;;;1.13;;
44774;SDS011;31340;51.402;0.016;2023-02-19T12:58:38;2.08;;;1.02;;
44774;SDS011;31340;51.402;0.016;2023-02-19T13:01:23;4.40;;;1.10;;
44774;SDS011;31340;51.402;0.016;2023-02-19T13:04:10;2.45;;;1.00;;
44774;SDS011;31340;51.402;0.016;2023-02-19T13:06:52;5.88;;;1.25;;
44774;SDS011;31340;51.402;0.016;2023-02-19T13:09:32;4.97;;;1.10;;
44774;SDS011;31340;51.402;0.016;2023-02-19T13:12:25;3.20;;;0.95;;
44774;SDS011;31340;51.402;0.016;2023-02-19T13:26:03;4.85;;;1.27;;
44774;SDS011;31340;51.402;0.016;2023-02-19T13:28:58;6.68;;;1.40;;
44774;SDS011;31340;51.402;0.016;2023-02-19T13:37:37;3.45;;;1.30;;
44774;SDS011;31340;51.402;0.016;2023-02-19T13:40:05;4.85;;;1.40;;
44774;SDS011;31340;51.402;0.016;2023-02-19T13:42:46;2.38;;;1.15;;
44774;SDS011;31340;51.402;0.016;2023-02-19T13:45:26;6.60;;;1.70;;
44774;SDS011;31340;51.402;0.016;2023-02-19T13:50:51;2.97;;;1.08;;
44774;SDS011;31340;51.402;0.016;2023-02-19T13:53:56;5.20;;;1.42;;
44774;SDS011;31340;51.402;0.016;2023-02-19T13:58:56;6.35;;;1.30;;
44774;SDS011;31340;51.402;0.016;2023-02-19T14:10:00;2.05;;;1.30;;
44774;SDS011;31340;51.402;0.016;2023-02-19T14:12:35;5.25;;;1.50;;
44774;SDS011;31340;51.402;0.016;2023-02-19T14:21:33;3.08;;;1.67;;
44774;SDS011;31340;51.402;0.016;2023-02-19T14:24:03;2.85;;;1.20;;
44774;SDS011;31340;51.402;0.016;2023-02-19T14:26:37;3.42;;;1.60;;
44774;SDS011;31340;51.402;0.016;2023-02-19T14:29:06;2.67;;;1.45;;
44774;SDS011;31340;51.402;0.016;2023-02-19T14:34:05;8.60;;;2.42;;
44774;SDS011;31340;51.402;0.016;2023-02-19T14:36:46;8.52;;;2.30;;
44774;SDS011;31340;51.402;0.016;2023-02-19T14:39:22;8.45;;;1.92;;
44774;SDS011;31340;51.402;0.016;2023-02-19T14:41:55;5.97;;;2.65;;
44774;SDS011;31340;51.402;0.016;2023-02-19T14:44:47;5.78;;;2.05;;
44774;SDS011;31340;51.402;0.016;2023-02-19T14:47:15;8.35;;;3.25;;
44774;SDS011;31340;51.402;0.016;2023-02-19T14:54:56;4.53;;;1.40;;
44774;SDS011;31340;51.402;0.016;2023-02-19T14:57:28;7.65;;;2.08;;
44774;SDS011;31340;51.402;0.016;2023-02-19T14:59:59;7.63;;;2.65;;
44774;SDS011;31340;51.402;0.016;2023-02-19T15:02:31;5.50;;;2.42;;
44774;SDS011;31340;51.402;0.016;2023-02-19T15:04:58;4.47;;;2.17;;
44774;SDS011;31340;51.402;0.016;2023-02-19T15:07:27;5.88;;;2.35;;
44774;SDS011;31340;51.402;0.016;2023-02-19T15:09:59;6.63;;;2.30;;
44774;SDS011;31340;51.402;0.016;2023-02-19T15:12:32;6.05;;;2.08;;
44774;SDS011;31340;51.402;0.016;2023-02-19T15:15:06;8.63;;;2.60;;
44774;SDS011;31340;51.402;0.016;2023-02-19T15:17:35;7.80;;;2.70;;
44774;SDS011;31340;51.402;0.016;2023-02-19T15:20:10;5.72;;;2.17;;
44774;SDS011;31340;51.402;0.016;2023-02-19T15:22:46;5.57;;;2.30;;
44774;SDS011;31340;51.402;0.016;2023-02-19T15:25:16;5.90;;;2.30;;
44774;SDS011;31340;51.402;0.016;2023-02-19T15:27:45;5.03;;;2.08;;
44774;SDS011;31340;51.402;0.016;2023-02-19T15:30:23;4.75;;;1.77;;
44774;SDS011;31340;51.402;0.016;2023-02-19T15:32:55;5.70;;;1.83;;
44774;SDS011;31340;51.402;0.016;2023-02-19T15:35:25;5.20;;;1.83;;
44774;SDS011;31340;51.402;0.016;2023-02-19T15:37:54;4.32;;;1.65;;
44774;SDS011;31340;51.402;0.016;2023-02-19T15:40:25;7.57;;;2.10;;
44774;SDS011;31340;51.402;0.016;2023-02-19T15:42:57;4.82;;;2.08;;
44774;SDS011;31340;51.402;0.016;2023-02-19T15:50:38;6.68;;;2.22;;
44774;SDS011;31340;51.402;0.016;2023-02-19T15:55:44;5.57;;;1.77;;
44774;SDS011;31340;51.402;0.016;2023-02-19T15:58:32;6.05;;;2.00;;
44774;SDS011;31340;51.402;0.016;2023-02-19T16:01:05;6.45;;;2.08;;
44774;SDS011;31340;51.402;0.016;2023-02-19T16:03:54;5.13;;;1.80;;
44774;SDS011;31340;51.402;0.016;2023-02-19T16:06:22;4.95;;;1.98;;
44774;SDS011;31340;51.402;0.016;2023-02-19T16:13:49;4.35;;;2.20;;
44774;SDS011;31340;51.402;0.016;2023-02-19T16:16:37;7.68;;;2.15;;
44774;SDS011;31340;51.402;0.016;2023-02-19T16:19:07;4.93;;;2.00;;
44774;SDS011;31340;51.402;0.016;2023-02-19T16:21:35;7.40;;;2.15;;
44774;SDS011;31340;51.402;0.016;2023-02-19T16:24:14;9.40;;;2.67;;
44774;SDS011;31340;51.402;0.016;2023-02-19T16:26:49;9.18;;;3.05;;
44774;SDS011;31340;51.402;0.016;2023-02-19T16:29:18;7.10;;;2.28;;
44774;SDS011;31340;51.402;0.016;2023-02-19T16:31:54;10.07;;;2.67;;
44774;SDS011;31340;51.402;0.016;2023-02-19T16:37:01;6.22;;;2.72;;
44774;SDS011;31340;51.402;0.016;2023-02-19T16:39:30;7.13;;;2.47;;
44774;SDS011;31340;51.402;0.016;2023-02-19T16:46:54;5.22;;;1.80;;
44774;SDS011;31340;51.402;0.016;2023-02-19T16:49:24;4.93;;;2.00;;
44774;SDS011;31340;51.402;0.016;2023-02-19T16:51:51;5.88;;;2.00;;
44774;SDS011;31340;51.402;0.016;2023-02-19T16:54:20;5.35;;;1.63;;
44774;SDS011;31340;51.402;0.016;2023-02-19T16:56:48;8.80;;;2.15;;
44774;SDS011;31340;51.402;0.016;2023-02-19T16:59:15;6.85;;;2.13;;
44774;SDS011;31340;51.402;0.016;2023-02-19T17:01:43;6.45;;;1.85;;
44774;SDS011;31340;51.402;0.016;2023-02-19T17:04:11;5.38;;;1.52;;
44774;SDS011;31340;51.402;0.016;2023-02-19T17:06:41;5.63;;;1.60;;
44774;SDS011;31340;51.402;0.016;2023-02-19T17:09:10;6.78;;;1.73;;
44774;SDS011;31340;51.402;0.016;2023-02-19T17:11:38;5.45;;;1.80;;
44774;SDS011;31340;51.402;0.016;2023-02-19T17:14:06;5.00;;;1.75;;
44774;SDS011;31340;51.402;0.016;2023-02-19T17:16:34;7.45;;;1.88;;
44774;SDS011;31340;51.402;0.016;2023-02-19T17:19:13;7.68;;;2.63;;
44774;SDS011;31340;51.402;0.016;2023-02-19T17:21:43;6.45;;;2.45;;
44774;SDS011;31340;51.402;0.016;2023-02-19T17:24:12;9.02;;;2.63;;
44774;SDS011;31340;51.402;0.016;2023-02-19T17:26:40;5.22;;;2.35;;
44774;SDS011;31340;51.402;0.016;2023-02-19T17:29:12;6.10;;;2.50;;
44774;SDS011;31340;51.402;0.016;2023-02-19T17:31:40;10.73;;;2.40;;
44774;SDS011;31340;51.402;0.016;2023-02-19T17:34:08;7.63;;;2.55;;
44774;SDS011;31340;51.402;0.016;2023-02-19T17:36:36;9.20;;;2.20;;
44774;SDS011;31340;51.402;0.016;2023-02-19T17:39:04;5.75;;;1.98;;
44774;SDS011;31340;51.402;0.016;2023-02-19T17:41:38;8.93;;;2.42;;
44774;SDS011;31340;51.402;0.016;2023-02-19T17:44:05;7.88;;;2.30;;
44774;SDS011;31340;51.402;0.016;2023-02-19T17:46:33;8.23;;;2.55;;
44774;SDS011;31340;51.402;0.016;2023-02-19T17:49:00;8.88;;;2.50;;
44774;SDS011;31340;51.402;0.016;2023-02-19T17:51:28;8.02;;;2.42;;
44774;SDS011;31340;51.402;0.016;2023-02-19T17:53:56;6.68;;;2.25;;